Mr. Cass — WDB5593 — position and weather

sailwx.info

Track history (hours):
 
Tides and Currents Weather Stations Pressure Air Temp Water Temp Dewpoint Dewpoint Depression Visibility Wind Speed Wind Dir Waves Ship Positions

Mr. Cass

Owner: Cass Marine Towing LLC, Marrero, LA. More information available from US FCC via Universal Licensing System and Coast Guard Vessel Documentation Center.

Last reported at 2015-Jul-05 16:30 UTC. Time now 2015-Jul-05 19:26 UTC.
Position N 29°56' W 089°59'.

Length 17 m; draft 3.5 m.

Type: Towing. MMSI: 366911310.

Date/timePositionNaut miles runAvg speedWind from/ knotsBaromVisibWave heightAir tempDewpointWater temp
2015-Jul-05 16:30N 29°56' W 089°59'0 0.0
2015-Jul-05 14:31N 29°56' W 089°59'0 0.0
2015-Jul-05 13:33N 29°56' W 089°59'0 0.0
2015-Jul-05 12:33N 29°56' W 089°59'0 0.0
2015-Jul-05 11:33N 29°56' W 089°59'0 0.0
2015-Jul-05 10:27N 29°56' W 089°59'0 0.0
2015-Jul-05 09:32N 29°56' W 089°59'0 0.0
2015-Jul-05 08:21N 29°56' W 089°59'0 0.0
2015-Jul-05 07:33N 29°56' W 089°59'1 0.2
2015-Jul-05 04:25N 29°56' W 089°59'12 1.7
2015-Jul-04 21:33N 29°56' W 090°12'0 0.0
2015-Jul-04 20:21N 29°56' W 090°12'0 0.0
2015-Jul-04 19:15N 29°56' W 090°12'0 0.0
2015-Jul-04 18:24N 29°56' W 090°12'8 0.3
2015-Jul-03 16:24N 29°57' W 090°04'4 0.4
2015-Jul-03 04:28N 29°57' W 090°09'3 2.7
2015-Jul-03 03:33N 29°54' W 090°07'0 0.0
2015-Jul-03 02:33N 29°54' W 090°07'0 0.0
2015-Jul-03 01:32N 29°54' W 090°07'0 0.0
2015-Jul-03 00:31N 29°54' W 090°07'0 0.0
2015-Jul-02 23:33N 29°54' W 090°07'0 0.0
2015-Jul-02 22:33N 29°54' W 090°07'0 0.0
2015-Jul-02 21:32N 29°54' W 090°07'0 0.0
2015-Jul-02 20:32N 29°54' W 090°07'0 0.0
2015-Jul-02 19:32N 29°54' W 090°07'3 0.1
2015-Jun-30 20:17N 29°53' W 090°04'1 0.4
2015-Jun-30 18:30N 29°54' W 090°05'1 1.1
2015-Jun-30 17:28N 29°55' W 090°05'3 2.6
2015-Jun-30 16:30N 29°55' W 090°08'4 3.6
2015-Jun-30 15:23N 29°56' W 090°04'2 2.8
2015-Jun-30 14:31N 29°57' W 090°01'4 3.5
2015-Jun-30 13:29N 29°55' W 089°57'0 0.0
2015-Jun-30 05:16N 29°55' W 089°57'6 7.7
2015-Jun-30 04:31N 29°57' W 090°04'4 4.2
2015-Jun-30 03:31N 29°54' W 090°07'0 0.0
2015-Jun-30 02:32N 29°54' W 090°07'0 0.0
2015-Jun-30 01:32N 29°54' W 090°07'0 0.0
2015-Jun-30 00:31N 29°54' W 090°07'0 0.0
2015-Jun-29 23:33N 29°54' W 090°07'1 0.0
2015-Jun-29 00:12N 29°55' W 090°08'4 4.9
2015-Jun-28 23:24N 29°56' W 090°04'3 3.9
2015-Jun-28 22:33N 29°56' W 089°60'2 2.4
2015-Jun-28 21:33N 29°58' W 090°02'1 1.0
2015-Jun-28 20:19N 29°59' W 090°01'1 0.9
2015-Jun-28 19:17N 29°60' W 090°00'2 2.3
2015-Jun-28 18:21N 29°58' W 090°02'2 1.9
2015-Jun-28 17:16N 29°56' W 089°60'2 3.1
2015-Jun-28 16:28N 29°57' W 090°03'  
2015-Jun-26 07:20N 29°56' W 090°12'0 0.0
2015-Jun-26 06:14N 29°56' W 090°12'0 0.0
2015-Jun-26 05:33N 29°56' W 090°12'0 0.0
2015-Jun-26 04:33N 29°56' W 090°12'0 0.0
2015-Jun-26 03:33N 29°56' W 090°12'0 0.0
2015-Jun-26 02:30N 29°56' W 090°12'0 0.0
2015-Jun-26 01:33N 29°56' W 090°12'0 0.0
2015-Jun-26 00:29N 29°56' W 090°12'  
Track history (hours):
 
Tides and Currents Weather Stations Pressure Air Temp Water Temp Dewpoint Dewpoint Depression Visibility Wind Speed Wind Dir Waves Ship Positions

Mr. Cass

Owner: Cass Marine Towing LLC, Marrero, LA. More information available from US FCC via Universal Licensing System and Coast Guard Vessel Documentation Center.

Last reported at 2015-Jul-05 16:30 UTC. Time now 2015-Jul-05 19:26 UTC.
Position N 29°56' W 089°59'.

Length 17 m; draft 3.5 m.

Type: Towing. MMSI: 366911310.

Date/timePositionNaut miles runAvg speedWind from/ knotsBaromVisibWave heightAir tempDewpointWater temp
2015-Jul-05 16:30N 29°56' W 089°59'0 0.0
2015-Jul-05 14:31N 29°56' W 089°59'0 0.0
2015-Jul-05 13:33N 29°56' W 089°59'0 0.0
2015-Jul-05 12:33N 29°56' W 089°59'0 0.0
2015-Jul-05 11:33N 29°56' W 089°59'0 0.0
2015-Jul-05 10:27N 29°56' W 089°59'0 0.0
2015-Jul-05 09:32N 29°56' W 089°59'0 0.0
2015-Jul-05 08:21N 29°56' W 089°59'0 0.0
2015-Jul-05 07:33N 29°56' W 089°59'1 0.2
2015-Jul-05 04:25N 29°56' W 089°59'12 1.7
2015-Jul-04 21:33N 29°56' W 090°12'0 0.0
2015-Jul-04 20:21N 29°56' W 090°12'0 0.0
2015-Jul-04 19:15N 29°56' W 090°12'0 0.0
2015-Jul-04 18:24N 29°56' W 090°12'8 0.3
2015-Jul-03 16:24N 29°57' W 090°04'4 0.4
2015-Jul-03 04:28N 29°57' W 090°09'3 2.7
2015-Jul-03 03:33N 29°54' W 090°07'0 0.0
2015-Jul-03 02:33N 29°54' W 090°07'0 0.0
2015-Jul-03 01:32N 29°54' W 090°07'0 0.0
2015-Jul-03 00:31N 29°54' W 090°07'0 0.0
2015-Jul-02 23:33N 29°54' W 090°07'0 0.0
2015-Jul-02 22:33N 29°54' W 090°07'0 0.0
2015-Jul-02 21:32N 29°54' W 090°07'0 0.0
2015-Jul-02 20:32N 29°54' W 090°07'0 0.0
2015-Jul-02 19:32N 29°54' W 090°07'3 0.1
2015-Jun-30 20:17N 29°53' W 090°04'1 0.4
2015-Jun-30 18:30N 29°54' W 090°05'1 1.1
2015-Jun-30 17:28N 29°55' W 090°05'3 2.6
2015-Jun-30 16:30N 29°55' W 090°08'4 3.6
2015-Jun-30 15:23N 29°56' W 090°04'2 2.8
2015-Jun-30 14:31N 29°57' W 090°01'4 3.5
2015-Jun-30 13:29N 29°55' W 089°57'0 0.0
2015-Jun-30 05:16N 29°55' W 089°57'6 7.7
2015-Jun-30 04:31N 29°57' W 090°04'4 4.2
2015-Jun-30 03:31N 29°54' W 090°07'0 0.0
2015-Jun-30 02:32N 29°54' W 090°07'0 0.0
2015-Jun-30 01:32N 29°54' W 090°07'0 0.0
2015-Jun-30 00:31N 29°54' W 090°07'0 0.0
2015-Jun-29 23:33N 29°54' W 090°07'1 0.0
2015-Jun-29 00:12N 29°55' W 090°08'4 4.9
2015-Jun-28 23:24N 29°56' W 090°04'3 3.9
2015-Jun-28 22:33N 29°56' W 089°60'2 2.4
2015-Jun-28 21:33N 29°58' W 090°02'1 1.0
2015-Jun-28 20:19N 29°59' W 090°01'1 0.9
2015-Jun-28 19:17N 29°60' W 090°00'2 2.3
2015-Jun-28 18:21N 29°58' W 090°02'2 1.9
2015-Jun-28 17:16N 29°56' W 089°60'2 3.1
2015-Jun-28 16:28N 29°57' W 090°03'  
2015-Jun-26 07:20N 29°56' W 090°12'0 0.0
2015-Jun-26 06:14N 29°56' W 090°12'0 0.0
2015-Jun-26 05:33N 29°56' W 090°12'0 0.0
2015-Jun-26 04:33N 29°56' W 090°12'0 0.0
2015-Jun-26 03:33N 29°56' W 090°12'0 0.0
2015-Jun-26 02:30N 29°56' W 090°12'0 0.0
2015-Jun-26 01:33N 29°56' W 090°12'0 0.0
2015-Jun-26 00:29N 29°56' W 090°12'  

Dump ship's entire track history